Mapleville, Rhode Island
Current Conditions -  °F | °C
As of 3:15 AM on Friday 24 Oct 2014 (Local Time) from KSFZ Reporting Station
Overcast Overcast  
Wind Chill: 43°   Ceiling: 1400
Heat Index: 48°   Visibility: 4mi
Dew Point: 41°   Wind: 13mph
Humidity: 76%   Direction: 350°N
Pressure: 29.65"   Gusts: 20mph
Location:  41.95°N, 71.65°W
Report Text: KSFZ 240715Z 35011G17KT 4SM SCT006 OVC014 09/05 A2965 RMK AO1
Loading
Personal Weather Stations






























Interactive Weather Map
Tropical Storm Tracking
New forecast layout! Learn more

10-Day Weather Forecast

Advertisements
Track Severe Weather on mobile